sensor_id;sensor_type;location;lat;lon;timestamp;temperature;humidity
38239;DHT22;24035;48.900;9.188;2024-01-15T00:02:18;-2.80;1.00
38239;DHT22;24035;48.900;9.188;2024-01-15T00:04:44;-2.90;1.00
38239;DHT22;24035;48.900;9.188;2024-01-15T00:07:10;-2.90;10.80
38239;DHT22;24035;48.900;9.188;2024-01-15T00:09:35;-3.00;41.80
38239;DHT22;24035;48.900;9.188;2024-01-15T00:12:02;-3.10;99.90
38239;DHT22;24035;48.900;9.188;2024-01-15T00:14:28;-3.20;99.90
38239;DHT22;24035;48.900;9.188;2024-01-15T00:16:54;-3.30;99.90
38239;DHT22;24035;48.900;9.188;2024-01-15T00:19:21;-3.30;1.00
38239;DHT22;24035;48.900;9.188;2024-01-15T00:21:47;-3.30;1.00
38239;DHT22;24035;48.900;9.188;2024-01-15T00:24:13;-3.30;1.00
38239;DHT22;24035;48.900;9.188;2024-01-15T00:26:39;-3.40;1.00
38239;DHT22;24035;48.900;9.188;2024-01-15T00:29:09;-3.30;1.00
38239;DHT22;24035;48.900;9.188;2024-01-15T00:31:35;-3.20;1.00
38239;DHT22;24035;48.900;9.188;2024-01-15T00:34:01;-3.10;1.00
38239;DHT22;24035;48.900;9.188;2024-01-15T00:36:27;-3.00;1.00
38239;DHT22;24035;48.900;9.188;2024-01-15T00:38:53;-3.00;1.00
38239;DHT22;24035;48.900;9.188;2024-01-15T00:41:19;-3.00;1.00
38239;DHT22;24035;48.900;9.188;2024-01-15T00:43:46;-2.90;1.00
38239;DHT22;24035;48.900;9.188;2024-01-15T00:46:12;-2.90;1.00
38239;DHT22;24035;48.900;9.188;2024-01-15T00:48:37;-2.70;1.00
38239;DHT22;24035;48.900;9.188;2024-01-15T00:51:04;-2.70;1.00
38239;DHT22;24035;48.900;9.188;2024-01-15T00:53:30;-2.60;1.00
38239;DHT22;24035;48.900;9.188;2024-01-15T00:55:56;-2.60;1.00
38239;DHT22;24035;48.900;9.188;2024-01-15T00:58:22;-2.60;1.00
38239;DHT22;24035;48.900;9.188;2024-01-15T01:00:48;-2.50;1.00
38239;DHT22;24035;48.900;9.188;2024-01-15T01:03:14;-2.50;1.00
38239;DHT22;24035;48.900;9.188;2024-01-15T01:05:39;-2.40;1.00
38239;DHT22;24035;48.900;9.188;2024-01-15T01:08:05;-2.30;1.00
38239;DHT22;24035;48.900;9.188;2024-01-15T01:10:31;-2.20;1.00
38239;DHT22;24035;48.900;9.188;2024-01-15T01:12:56;-2.10;1.00
38239;DHT22;24035;48.900;9.188;2024-01-15T01:15:22;-2.00;99.90
38239;DHT22;24035;48.900;9.188;2024-01-15T01:17:48;-2.00;99.90
38239;DHT22;24035;48.900;9.188;2024-01-15T01:20:14;-1.90;99.90
38239;DHT22;24035;48.900;9.188;2024-01-15T01:22:41;-1.80;99.90
38239;DHT22;24035;48.900;9.188;2024-01-15T01:25:07;-1.70;99.90
38239;DHT22;24035;48.900;9.188;2024-01-15T01:27:32;-1.60;99.90
38239;DHT22;24035;48.900;9.188;2024-01-15T01:29:58;-1.60;99.90
38239;DHT22;24035;48.900;9.188;2024-01-15T01:32:24;-1.50;99.90
38239;DHT22;24035;48.900;9.188;2024-01-15T01:34:50;-1.40;99.90
38239;DHT22;24035;48.900;9.188;2024-01-15T01:37:15;-1.30;99.90
38239;DHT22;24035;48.900;9.188;2024-01-15T01:39:44;-1.30;52.50
38239;DHT22;24035;48.900;9.188;2024-01-15T01:42:10;-1.30;77.00
38239;DHT22;24035;48.900;9.188;2024-01-15T01:44:37;-1.20;58.50
38239;DHT22;24035;48.900;9.188;2024-01-15T01:47:03;-1.20;18.10
38239;DHT22;24035;48.900;9.188;2024-01-15T01:49:30;-1.20;1.00
38239;DHT22;24035;48.900;9.188;2024-01-15T01:51:57;-1.20;1.00
38239;DHT22;24035;48.900;9.188;2024-01-15T01:54:25;-1.20;6.40
38239;DHT22;24035;48.900;9.188;2024-01-15T01:56:52;-1.20;1.00
38239;DHT22;24035;48.900;9.188;2024-01-15T01:59:18;-1.20;1.00
38239;DHT22;24035;48.900;9.188;2024-01-15T02:01:44;-1.20;1.00
38239;DHT22;24035;48.900;9.188;2024-01-15T02:04:11;-1.10;1.00
38239;DHT22;24035;48.900;9.188;2024-01-15T02:06:37;-1.10;1.00
38239;DHT22;24035;48.900;9.188;2024-01-15T02:09:03;-1.00;1.00
38239;DHT22;24035;48.900;9.188;2024-01-15T02:11:29;-1.00;1.00
38239;DHT22;24035;48.900;9.188;2024-01-15T02:13:55;-0.90;1.00
38239;DHT22;24035;48.900;9.188;2024-01-15T02:16:20;-0.90;1.00
38239;DHT22;24035;48.900;9.188;2024-01-15T02:18:46;-0.90;1.00
38239;DHT22;24035;48.900;9.188;2024-01-15T02:21:12;-0.80;1.00
38239;DHT22;24035;48.900;9.188;2024-01-15T02:23:39;-0.80;1.00
38239;DHT22;24035;48.900;9.188;2024-01-15T02:26:05;-0.80;1.00
38239;DHT22;24035;48.900;9.188;2024-01-15T02:28:32;-0.80;1.00
38239;DHT22;24035;48.900;9.188;2024-01-15T02:30:59;-0.80;1.00
38239;DHT22;24035;48.900;9.188;2024-01-15T02:33:25;-0.70;1.00
38239;DHT22;24035;48.900;9.188;2024-01-15T02:35:51;-0.80;1.00
38239;DHT22;24035;48.900;9.188;2024-01-15T02:38:17;-0.80;1.00
38239;DHT22;24035;48.900;9.188;2024-01-15T02:40:44;-0.80;1.00
38239;DHT22;24035;48.900;9.188;2024-01-15T02:43:13;-0.80;1.00
38239;DHT22;24035;48.900;9.188;2024-01-15T02:45:39;-0.90;1.00
38239;DHT22;24035;48.900;9.188;2024-01-15T02:48:05;-0.90;1.00
38239;DHT22;24035;48.900;9.188;2024-01-15T02:50:31;-1.00;1.00
38239;DHT22;24035;48.900;9.188;2024-01-15T02:52:57;-1.00;1.00
38239;DHT22;24035;48.900;9.188;2024-01-15T02:55:23;-1.00;1.00
38239;DHT22;24035;48.900;9.188;2024-01-15T02:57:48;-1.10;1.00
38239;DHT22;24035;48.900;9.188;2024-01-15T03:00:14;-1.10;1.00
38239;DHT22;24035;48.900;9.188;2024-01-15T03:02:40;-1.10;1.00
38239;DHT22;24035;48.900;9.188;2024-01-15T03:05:09;-1.00;1.00
38239;DHT22;24035;48.900;9.188;2024-01-15T03:07:35;-1.00;1.00
38239;DHT22;24035;48.900;9.188;2024-01-15T03:10:01;-1.10;1.00
38239;DHT22;24035;48.900;9.188;2024-01-15T03:12:27;-1.00;1.00
38239;DHT22;24035;48.900;9.188;2024-01-15T03:14:53;-1.00;1.00
38239;DHT22;24035;48.900;9.188;2024-01-15T03:17:19;-0.90;1.00
38239;DHT22;24035;48.900;9.188;2024-01-15T03:19:44;-0.90;1.00
38239;DHT22;24035;48.900;9.188;2024-01-15T03:22:10;-1.00;1.00
38239;DHT22;24035;48.900;9.188;2024-01-15T03:24:36;-1.00;1.00
38239;DHT22;24035;48.900;9.188;2024-01-15T03:27:02;-1.00;1.00
38239;DHT22;24035;48.900;9.188;2024-01-15T03:29:28;-1.00;1.00
38239;DHT22;24035;48.900;9.188;2024-01-15T03:31:54;-1.00;1.00
38239;DHT22;24035;48.900;9.188;2024-01-15T03:34:19;-0.90;1.00
38239;DHT22;24035;48.900;9.188;2024-01-15T03:36:45;-0.90;1.00
38239;DHT22;24035;48.900;9.188;2024-01-15T03:39:11;-0.90;1.00
38239;DHT22;24035;48.900;9.188;2024-01-15T03:41:37;-0.80;1.00
38239;DHT22;24035;48.900;9.188;2024-01-15T03:44:03;-0.80;1.00
38239;DHT22;24035;48.900;9.188;2024-01-15T03:46:28;-0.80;1.00
38239;DHT22;24035;48.900;9.188;2024-01-15T03:48:54;-0.80;1.00
38239;DHT22;24035;48.900;9.188;2024-01-15T03:51:20;-0.60;1.00
38239;DHT22;24035;48.900;9.188;2024-01-15T03:53:46;-0.60;1.00
38239;DHT22;24035;48.900;9.188;2024-01-15T03:56:12;-0.60;1.00
38239;DHT22;24035;48.900;9.188;2024-01-15T03:58:37;-0.60;1.00
38239;DHT22;24035;48.900;9.188;2024-01-15T04:01:03;-0.50;1.00
38239;DHT22;24035;48.900;9.188;2024-01-15T04:03:29;-0.50;1.00
38239;DHT22;24035;48.900;9.188;2024-01-15T04:05:55;-0.50;1.00
38239;DHT22;24035;48.900;9.188;2024-01-15T04:08:20;-0.40;1.00
38239;DHT22;24035;48.900;9.188;2024-01-15T04:10:46;-0.40;1.00
38239;DHT22;24035;48.900;9.188;2024-01-15T04:13:12;-0.40;1.00
38239;DHT22;24035;48.900;9.188;2024-01-15T04:15:38;-0.40;1.00
38239;DHT22;24035;48.900;9.188;2024-01-15T04:18:04;-0.30;1.00
38239;DHT22;24035;48.900;9.188;2024-01-15T04:20:30;-0.30;1.00
38239;DHT22;24035;48.900;9.188;2024-01-15T04:22:55;-0.30;1.00
38239;DHT22;24035;48.900;9.188;2024-01-15T04:25:21;-0.20;1.00
38239;DHT22;24035;48.900;9.188;2024-01-15T04:27:47;-0.20;99.90
38239;DHT22;24035;48.900;9.188;2024-01-15T04:30:13;-0.20;99.90
38239;DHT22;24035;48.900;9.188;2024-01-15T04:32:39;-0.20;99.90
38239;DHT22;24035;48.900;9.188;2024-01-15T04:35:05;-0.20;99.90
38239;DHT22;24035;48.900;9.188;2024-01-15T04:37:30;-0.10;99.90
38239;DHT22;24035;48.900;9.188;2024-01-15T04:39:56;-0.10;99.90
38239;DHT22;24035;48.900;9.188;2024-01-15T04:42:23;-0.10;99.90
38239;DHT22;24035;48.900;9.188;2024-01-15T04:44:49;-0.10;99.90
38239;DHT22;24035;48.900;9.188;2024-01-15T04:47:15;0.00;99.90
38239;DHT22;24035;48.900;9.188;2024-01-15T04:49:41;0.00;99.90
38239;DHT22;24035;48.900;9.188;2024-01-15T04:52:07;0.00;99.90
38239;DHT22;24035;48.900;9.188;2024-01-15T04:54:36;0.00;99.90
38239;DHT22;24035;48.900;9.188;2024-01-15T04:57:02;0.10;99.90
38239;DHT22;24035;48.900;9.188;2024-01-15T04:59:28;0.10;99.90
38239;DHT22;24035;48.900;9.188;2024-01-15T05:01:54;0.10;99.90
38239;DHT22;24035;48.900;9.188;2024-01-15T05:04:20;0.10;99.90
38239;DHT22;24035;48.900;9.188;2024-01-15T05:06:46;0.20;99.90
38239;DHT22;24035;48.900;9.188;2024-01-15T05:09:11;0.20;99.90
38239;DHT22;24035;48.900;9.188;2024-01-15T05:11:39;0.20;99.90
38239;DHT22;24035;48.900;9.188;2024-01-15T05:14:05;0.20;99.90
38239;DHT22;24035;48.900;9.188;2024-01-15T05:16:30;0.20;99.90
38239;DHT22;24035;48.900;9.188;2024-01-15T05:18:56;0.10;99.90
38239;DHT22;24035;48.900;9.188;2024-01-15T05:21:22;0.20;99.90
38239;DHT22;24035;48.900;9.188;2024-01-15T05:23:48;0.20;99.90
38239;DHT22;24035;48.900;9.188;2024-01-15T05:26:13;0.20;99.90
38239;DHT22;24035;48.900;9.188;2024-01-15T05:28:41;0.20;99.90
38239;DHT22;24035;48.900;9.188;2024-01-15T05:31:08;0.20;99.90
38239;DHT22;24035;48.900;9.188;2024-01-15T05:33:34;0.30;99.90
38239;DHT22;24035;48.900;9.188;2024-01-15T05:36:00;0.30;99.90
38239;DHT22;24035;48.900;9.188;2024-01-15T05:38:26;0.30;99.90
38239;DHT22;24035;48.900;9.188;2024-01-15T05:40:51;0.30;99.90
38239;DHT22;24035;48.900;9.188;2024-01-15T05:43:17;0.20;99.90
38239;DHT22;24035;48.900;9.188;2024-01-15T05:45:43;0.20;99.90
38239;DHT22;24035;48.900;9.188;2024-01-15T05:48:10;0.30;99.90
38239;DHT22;24035;48.900;9.188;2024-01-15T05:50:36;0.30;99.90
38239;DHT22;24035;48.900;9.188;2024-01-15T05:53:02;0.30;99.90
38239;DHT22;24035;48.900;9.188;2024-01-15T05:55:28;0.30;99.90
38239;DHT22;24035;48.900;9.188;2024-01-15T05:57:53;0.20;99.90
38239;DHT22;24035;48.900;9.188;2024-01-15T06:00:20;0.30;99.90
38239;DHT22;24035;48.900;9.188;2024-01-15T06:02:45;0.30;99.90
38239;DHT22;24035;48.900;9.188;2024-01-15T06:05:11;0.20;99.90
38239;DHT22;24035;48.900;9.188;2024-01-15T06:07:37;0.20;99.90
38239;DHT22;24035;48.900;9.188;2024-01-15T06:10:03;0.20;99.90
38239;DHT22;24035;48.900;9.188;2024-01-15T06:12:30;0.20;99.90
38239;DHT22;24035;48.900;9.188;2024-01-15T06:14:56;0.20;99.90
38239;DHT22;24035;48.900;9.188;2024-01-15T06:17:22;0.10;99.90
38239;DHT22;24035;48.900;9.188;2024-01-15T06:19:48;0.20;99.90
38239;DHT22;24035;48.900;9.188;2024-01-15T06:22:14;0.20;99.90
38239;DHT22;24035;48.900;9.188;2024-01-15T06:24:39;0.20;99.90
38239;DHT22;24035;48.900;9.188;2024-01-15T06:27:05;0.20;99.90
38239;DHT22;24035;48.900;9.188;2024-01-15T06:29:32;0.20;99.90
38239;DHT22;24035;48.900;9.188;2024-01-15T06:31:57;0.20;99.90
38239;DHT22;24035;48.900;9.188;2024-01-15T06:34:23;0.20;99.90
38239;DHT22;24035;48.900;9.188;2024-01-15T06:36:49;0.30;99.90
38239;DHT22;24035;48.900;9.188;2024-01-15T06:39:15;0.30;99.90
38239;DHT22;24035;48.900;9.188;2024-01-15T06:41:41;0.30;99.90
38239;DHT22;24035;48.900;9.188;2024-01-15T06:44:13;0.30;99.90
38239;DHT22;24035;48.900;9.188;2024-01-15T06:46:45;0.40;99.90
38239;DHT22;24035;48.900;9.188;2024-01-15T06:49:11;0.40;99.90
38239;DHT22;24035;48.900;9.188;2024-01-15T06:51:37;0.30;95.90
38239;DHT22;24035;48.900;9.188;2024-01-15T06:54:03;0.40;99.90
38239;DHT22;24035;48.900;9.188;2024-01-15T06:56:29;0.30;98.70
38239;DHT22;24035;48.900;9.188;2024-01-15T06:58:55;0.40;99.90
38239;DHT22;24035;48.900;9.188;2024-01-15T07:01:21;0.40;75.30
38239;DHT22;24035;48.900;9.188;2024-01-15T07:03:46;0.40;84.90
38239;DHT22;24035;48.900;9.188;2024-01-15T07:06:13;0.40;57.50
38239;DHT22;24035;48.900;9.188;2024-01-15T07:08:39;0.40;66.50
38239;DHT22;24035;48.900;9.188;2024-01-15T07:11:05;0.40;99.90
38239;DHT22;24035;48.900;9.188;2024-01-15T07:13:31;0.40;89.20
38239;DHT22;24035;48.900;9.188;2024-01-15T07:15:57;0.40;91.70
38239;DHT22;24035;48.900;9.188;2024-01-15T07:18:23;0.40;99.90
38239;DHT22;24035;48.900;9.188;2024-01-15T07:20:49;0.50;77.90
38239;DHT22;24035;48.900;9.188;2024-01-15T07:23:15;0.50;33.30
38239;DHT22;24035;48.900;9.188;2024-01-15T07:25:40;0.60;7.00
38239;DHT22;24035;48.900;9.188;2024-01-15T07:28:06;0.60;1.00
38239;DHT22;24035;48.900;9.188;2024-01-15T07:30:32;0.60;1.00
38239;DHT22;24035;48.900;9.188;2024-01-15T07:32:58;0.60;1.00
38239;DHT22;24035;48.900;9.188;2024-01-15T07:35:23;0.60;1.00
38239;DHT22;24035;48.900;9.188;2024-01-15T07:37:49;0.60;1.00
38239;DHT22;24035;48.900;9.188;2024-01-15T07:40:15;0.60;1.00
38239;DHT22;24035;48.900;9.188;2024-01-15T07:42:41;0.60;1.00
38239;DHT22;24035;48.900;9.188;2024-01-15T07:45:11;0.70;1.00
38239;DHT22;24035;48.900;9.188;2024-01-15T07:47:37;0.70;1.00
38239;DHT22;24035;48.900;9.188;2024-01-15T07:50:03;0.70;1.00
38239;DHT22;24035;48.900;9.188;2024-01-15T07:52:30;0.70;1.00
38239;DHT22;24035;48.900;9.188;2024-01-15T07:54:56;0.70;1.00
38239;DHT22;24035;48.900;9.188;2024-01-15T07:57:22;0.70;1.00
38239;DHT22;24035;48.900;9.188;2024-01-15T07:59:48;0.90;1.00
38239;DHT22;24035;48.900;9.188;2024-01-15T08:02:15;0.90;1.00
38239;DHT22;24035;48.900;9.188;2024-01-15T08:04:41;0.90;1.00
38239;DHT22;24035;48.900;9.188;2024-01-15T08:07:07;0.90;1.00
38239;DHT22;24035;48.900;9.188;2024-01-15T08:09:33;0.90;1.00
38239;DHT22;24035;48.900;9.188;2024-01-15T08:12:00;0.90;1.00
38239;DHT22;24035;48.900;9.188;2024-01-15T08:14:25;1.00;1.00
38239;DHT22;24035;48.900;9.188;2024-01-15T08:16:51;1.00;1.00
38239;DHT22;24035;48.900;9.188;2024-01-15T08:19:17;1.00;1.00
38239;DHT22;24035;48.900;9.188;2024-01-15T08:21:43;1.00;1.00
38239;DHT22;24035;48.900;9.188;2024-01-15T08:24:09;1.00;1.00
38239;DHT22;24035;48.900;9.188;2024-01-15T08:26:34;1.10;1.00
38239;DHT22;24035;48.900;9.188;2024-01-15T08:29:00;1.10;1.00
38239;DHT22;24035;48.900;9.188;2024-01-15T08:31:26;1.10;1.00
38239;DHT22;24035;48.900;9.188;2024-01-15T08:33:52;1.20;1.00
38239;DHT22;24035;48.900;9.188;2024-01-15T08:36:18;1.20;1.00
38239;DHT22;24035;48.900;9.188;2024-01-15T08:38:44;1.20;1.00
38239;DHT22;24035;48.900;9.188;2024-01-15T08:41:10;1.20;1.00
38239;DHT22;24035;48.900;9.188;2024-01-15T08:43:35;1.20;1.00
38239;DHT22;24035;48.900;9.188;2024-01-15T08:46:02;1.30;1.00
38239;DHT22;24035;48.900;9.188;2024-01-15T08:48:28;1.30;1.00
38239;DHT22;24035;48.900;9.188;2024-01-15T08:50:54;1.30;1.00
38239;DHT22;24035;48.900;9.188;2024-01-15T08:53:20;1.40;1.00
38239;DHT22;24035;48.900;9.188;2024-01-15T08:55:46;1.40;1.00
38239;DHT22;24035;48.900;9.188;2024-01-15T08:58:13;1.40;1.00
38239;DHT22;24035;48.900;9.188;2024-01-15T09:00:39;1.50;1.00
38239;DHT22;24035;48.900;9.188;2024-01-15T09:03:05;1.50;1.00
38239;DHT22;24035;48.900;9.188;2024-01-15T09:05:31;1.60;1.00
38239;DHT22;24035;48.900;9.188;2024-01-15T09:07:57;1.70;1.00
38239;DHT22;24035;48.900;9.188;2024-01-15T09:10:23;1.80;99.90
38239;DHT22;24035;48.900;9.188;2024-01-15T09:12:49;1.80;99.90
38239;DHT22;24035;48.900;9.188;2024-01-15T09:15:15;1.80;99.90
38239;DHT22;24035;48.900;9.188;2024-01-15T09:17:41;1.80;99.90
38239;DHT22;24035;48.900;9.188;2024-01-15T09:20:08;1.90;99.90
38239;DHT22;24035;48.900;9.188;2024-01-15T09:22:35;1.80;99.90
38239;DHT22;24035;48.900;9.188;2024-01-15T09:25:01;1.90;99.90
38239;DHT22;24035;48.900;9.188;2024-01-15T09:27:26;1.90;99.90
38239;DHT22;24035;48.900;9.188;2024-01-15T09:29:53;2.00;99.90
38239;DHT22;24035;48.900;9.188;2024-01-15T09:32:18;2.00;99.90
38239;DHT22;24035;48.900;9.188;2024-01-15T09:34:45;2.10;99.90
38239;DHT22;24035;48.900;9.188;2024-01-15T09:37:12;2.10;99.90
38239;DHT22;24035;48.900;9.188;2024-01-15T09:39:38;2.10;99.90
38239;DHT22;24035;48.900;9.188;2024-01-15T09:42:04;2.10;99.90
38239;DHT22;24035;48.900;9.188;2024-01-15T09:44:31;2.10;99.90
38239;DHT22;24035;48.900;9.188;2024-01-15T09:46:57;2.10;99.90
38239;DHT22;24035;48.900;9.188;2024-01-15T09:49:23;2.20;99.90
38239;DHT22;24035;48.900;9.188;2024-01-15T09:51:49;2.10;99.90
38239;DHT22;24035;48.900;9.188;2024-01-15T09:54:16;2.10;99.90
38239;DHT22;24035;48.900;9.188;2024-01-15T09:56:46;2.30;99.90
38239;DHT22;24035;48.900;9.188;2024-01-15T09:59:18;2.30;99.90
38239;DHT22;24035;48.900;9.188;2024-01-15T10:01:45;2.30;99.90
38239;DHT22;24035;48.900;9.188;2024-01-15T10:04:13;2.40;99.90
38239;DHT22;24035;48.900;9.188;2024-01-15T10:06:42;2.40;99.90
38239;DHT22;24035;48.900;9.188;2024-01-15T10:09:08;2.40;99.90
38239;DHT22;24035;48.900;9.188;2024-01-15T10:11:34;2.40;99.90
38239;DHT22;24035;48.900;9.188;2024-01-15T10:14:03;2.30;99.90
38239;DHT22;24035;48.900;9.188;2024-01-15T10:16:30;2.30;99.90
38239;DHT22;24035;48.900;9.188;2024-01-15T10:18:55;2.30;99.90
38239;DHT22;24035;48.900;9.188;2024-01-15T10:21:21;2.30;99.90
38239;DHT22;24035;48.900;9.188;2024-01-15T10:23:47;2.30;99.90
38239;DHT22;24035;48.900;9.188;2024-01-15T10:26:13;2.30;99.90
38239;DHT22;24035;48.900;9.188;2024-01-15T10:28:40;2.30;99.90
38239;DHT22;24035;48.900;9.188;2024-01-15T10:31:06;2.20;99.90
38239;DHT22;24035;48.900;9.188;2024-01-15T10:33:32;2.20;99.90
38239;DHT22;24035;48.900;9.188;2024-01-15T10:35:59;2.10;99.90
38239;DHT22;24035;48.900;9.188;2024-01-15T10:38:26;2.10;99.90
38239;DHT22;24035;48.900;9.188;2024-01-15T10:40:55;2.10;99.90
38239;DHT22;24035;48.900;9.188;2024-01-15T10:43:22;2.10;99.90
38239;DHT22;24035;48.900;9.188;2024-01-15T10:45:49;2.10;99.90
38239;DHT22;24035;48.900;9.188;2024-01-15T10:48:17;2.10;99.90
38239;DHT22;24035;48.900;9.188;2024-01-15T10:50:44;2.00;99.90
38239;DHT22;24035;48.900;9.188;2024-01-15T10:53:12;2.00;99.90
38239;DHT22;24035;48.900;9.188;2024-01-15T10:55:38;1.90;1.00
38239;DHT22;24035;48.900;9.188;2024-01-15T10:58:05;1.90;1.00
38239;DHT22;24035;48.900;9.188;2024-01-15T11:00:37;1.80;1.00
38239;DHT22;24035;48.900;9.188;2024-01-15T11:03:05;1.80;1.00
38239;DHT22;24035;48.900;9.188;2024-01-15T11:05:38;1.80;1.00
38239;DHT22;24035;48.900;9.188;2024-01-15T11:08:07;1.70;1.00
38239;DHT22;24035;48.900;9.188;2024-01-15T11:18:27;1.30;1.00
38239;DHT22;24035;48.900;9.188;2024-01-15T11:21:20;1.20;99.90
38239;DHT22;24035;48.900;9.188;2024-01-15T11:23:57;1.00;1.00
38239;DHT22;24035;48.900;9.188;2024-01-15T11:26:45;1.00;1.00
38239;DHT22;24035;48.900;9.188;2024-01-15T11:31:56;0.80;73.80
38239;DHT22;24035;48.900;9.188;2024-01-15T11:34:52;0.90;99.90
38239;DHT22;24035;48.900;9.188;2024-01-15T11:37:19;0.90;99.90
38239;DHT22;24035;48.900;9.188;2024-01-15T11:39:45;0.90;99.90
38239;DHT22;24035;48.900;9.188;2024-01-15T11:42:14;0.90;99.90
38239;DHT22;24035;48.900;9.188;2024-01-15T11:44:42;1.00;99.90
38239;DHT22;24035;48.900;9.188;2024-01-15T11:47:09;1.00;99.90
38239;DHT22;24035;48.900;9.188;2024-01-15T11:50:00;1.00;99.90
38239;DHT22;24035;48.900;9.188;2024-01-15T11:52:32;1.00;99.90
38239;DHT22;24035;48.900;9.188;2024-01-15T11:57:53;1.00;99.90
38239;DHT22;24035;48.900;9.188;2024-01-15T12:00:21;0.90;99.90
38239;DHT22;24035;48.900;9.188;2024-01-15T12:02:48;0.80;1.00
38239;DHT22;24035;48.900;9.188;2024-01-15T12:05:15;0.80;1.00
38239;DHT22;24035;48.900;9.188;2024-01-15T12:07:43;0.80;1.00
38239;DHT22;24035;48.900;9.188;2024-01-15T12:10:10;0.90;1.00
38239;DHT22;24035;48.900;9.188;2024-01-15T12:15:28;1.00;99.90
38239;DHT22;24035;48.900;9.188;2024-01-15T12:17:57;0.90;99.90
38239;DHT22;24035;48.900;9.188;2024-01-15T12:20:27;0.80;99.90
38239;DHT22;24035;48.900;9.188;2024-01-15T12:22:53;0.80;1.00
38239;DHT22;24035;48.900;9.188;2024-01-15T12:25:21;0.80;1.00
38239;DHT22;24035;48.900;9.188;2024-01-15T12:27:47;0.80;1.00
38239;DHT22;24035;48.900;9.188;2024-01-15T12:30:13;0.80;1.00
38239;DHT22;24035;48.900;9.188;2024-01-15T12:32:41;0.80;1.00
38239;DHT22;24035;48.900;9.188;2024-01-15T12:35:07;0.80;1.00
38239;DHT22;24035;48.900;9.188;2024-01-15T12:37:35;0.80;1.00
38239;DHT22;24035;48.900;9.188;2024-01-15T12:40:11;0.80;1.00
38239;DHT22;24035;48.900;9.188;2024-01-15T12:42:39;0.90;1.00
38239;DHT22;24035;48.900;9.188;2024-01-15T12:45:06;0.90;75.60
38239;DHT22;24035;48.900;9.188;2024-01-15T12:47:32;0.90;43.30
38239;DHT22;24035;48.900;9.188;2024-01-15T12:49:58;0.90;99.90
38239;DHT22;24035;48.900;9.188;2024-01-15T12:52:30;0.90;99.90
38239;DHT22;24035;48.900;9.188;2024-01-15T12:54:56;0.90;99.90
38239;DHT22;24035;48.900;9.188;2024-01-15T12:57:22;0.90;1.00
38239;DHT22;24035;48.900;9.188;2024-01-15T12:59:48;0.90;1.00
38239;DHT22;24035;48.900;9.188;2024-01-15T13:02:16;0.90;1.00
38239;DHT22;24035;48.900;9.188;2024-01-15T13:04:42;0.90;1.00
38239;DHT22;24035;48.900;9.188;2024-01-15T13:07:08;0.90;1.00
38239;DHT22;24035;48.900;9.188;2024-01-15T13:09:34;0.90;1.00
38239;DHT22;24035;48.900;9.188;2024-01-15T13:12:05;0.90;1.00
38239;DHT22;24035;48.900;9.188;2024-01-15T13:14:31;0.90;99.90
38239;DHT22;24035;48.900;9.188;2024-01-15T13:16:58;0.90;99.90
38239;DHT22;24035;48.900;9.188;2024-01-15T13:19:24;1.00;1.00
38239;DHT22;24035;48.900;9.188;2024-01-15T13:21:50;1.00;99.90
38239;DHT22;24035;48.900;9.188;2024-01-15T13:24:17;1.00;47.50
38239;DHT22;24035;48.900;9.188;2024-01-15T13:26:43;0.90;1.00
38239;DHT22;24035;48.900;9.188;2024-01-15T13:29:09;0.90;1.00
38239;DHT22;24035;48.900;9.188;2024-01-15T13:31:35;0.90;1.00
38239;DHT22;24035;48.900;9.188;2024-01-15T13:34:01;0.90;1.00
38239;DHT22;24035;48.900;9.188;2024-01-15T13:36:27;0.90;1.00
38239;DHT22;24035;48.900;9.188;2024-01-15T13:38:53;0.90;1.00
38239;DHT22;24035;48.900;9.188;2024-01-15T13:41:22;1.00;1.00
38239;DHT22;24035;48.900;9.188;2024-01-15T13:43:54;1.00;1.00
38239;DHT22;24035;48.900;9.188;2024-01-15T13:46:23;1.00;1.00
38239;DHT22;24035;48.900;9.188;2024-01-15T13:48:49;1.10;1.00
38239;DHT22;24035;48.900;9.188;2024-01-15T13:51:15;1.00;1.00
38239;DHT22;24035;48.900;9.188;2024-01-15T13:53:41;0.90;1.00
38239;DHT22;24035;48.900;9.188;2024-01-15T13:56:07;0.90;1.00
38239;DHT22;24035;48.900;9.188;2024-01-15T13:58:35;0.90;1.00
38239;DHT22;24035;48.900;9.188;2024-01-15T14:01:01;0.90;1.00
38239;DHT22;24035;48.900;9.188;2024-01-15T14:03:29;0.90;1.00
38239;DHT22;24035;48.900;9.188;2024-01-15T14:05:55;0.90;1.00
38239;DHT22;24035;48.900;9.188;2024-01-15T14:08:21;0.90;1.00
38239;DHT22;24035;48.900;9.188;2024-01-15T14:10:47;0.90;1.00
38239;DHT22;24035;48.900;9.188;2024-01-15T14:13:14;0.90;1.00
38239;DHT22;24035;48.900;9.188;2024-01-15T14:15:39;0.90;1.00
38239;DHT22;24035;48.900;9.188;2024-01-15T14:18:05;0.80;1.00
38239;DHT22;24035;48.900;9.188;2024-01-15T14:20:31;0.80;1.00
38239;DHT22;24035;48.900;9.188;2024-01-15T14:22:57;0.80;1.00
38239;DHT22;24035;48.900;9.188;2024-01-15T14:25:23;0.80;99.90
38239;DHT22;24035;48.900;9.188;2024-01-15T14:27:49;0.80;99.90
38239;DHT22;24035;48.900;9.188;2024-01-15T14:30:16;0.80;99.90
38239;DHT22;24035;48.900;9.188;2024-01-15T14:32:42;0.70;99.90
38239;DHT22;24035;48.900;9.188;2024-01-15T14:35:09;0.70;1.00
38239;DHT22;24035;48.900;9.188;2024-01-15T14:37:39;0.60;1.00
38239;DHT22;24035;48.900;9.188;2024-01-15T14:40:08;0.60;1.00
38239;DHT22;24035;48.900;9.188;2024-01-15T14:42:36;0.60;1.00
38239;DHT22;24035;48.900;9.188;2024-01-15T14:45:03;0.60;1.00
38239;DHT22;24035;48.900;9.188;2024-01-15T14:47:30;0.60;99.90
38239;DHT22;24035;48.900;9.188;2024-01-15T14:49:56;0.60;1.00
38239;DHT22;24035;48.900;9.188;2024-01-15T14:52:25;0.60;1.00
38239;DHT22;24035;48.900;9.188;2024-01-15T14:54:51;0.60;1.00
38239;DHT22;24035;48.900;9.188;2024-01-15T14:57:24;0.70;99.90
38239;DHT22;24035;48.900;9.188;2024-01-15T14:59:49;0.70;99.90
38239;DHT22;24035;48.900;9.188;2024-01-15T15:02:15;0.70;99.90
38239;DHT22;24035;48.900;9.188;2024-01-15T15:04:41;0.70;99.90
38239;DHT22;24035;48.900;9.188;2024-01-15T15:07:07;0.70;99.90
38239;DHT22;24035;48.900;9.188;2024-01-15T15:09:33;0.70;1.00
38239;DHT22;24035;48.900;9.188;2024-01-15T15:11:59;0.70;99.90
38239;DHT22;24035;48.900;9.188;2024-01-15T15:14:25;0.70;99.90
38239;DHT22;24035;48.900;9.188;2024-01-15T15:16:51;0.70;33.60
38239;DHT22;24035;48.900;9.188;2024-01-15T15:19:18;0.70;1.00
38239;DHT22;24035;48.900;9.188;2024-01-15T15:21:44;0.60;1.00
38239;DHT22;24035;48.900;9.188;2024-01-15T15:24:10;0.60;1.00
38239;DHT22;24035;48.900;9.188;2024-01-15T15:26:37;0.70;1.00
38239;DHT22;24035;48.900;9.188;2024-01-15T15:29:02;0.60;1.00
38239;DHT22;24035;48.900;9.188;2024-01-15T15:31:28;0.60;1.00
38239;DHT22;24035;48.900;9.188;2024-01-15T15:33:54;0.60;1.00
38239;DHT22;24035;48.900;9.188;2024-01-15T15:36:19;0.60;1.00
38239;DHT22;24035;48.900;9.188;2024-01-15T15:38:45;0.60;1.00
38239;DHT22;24035;48.900;9.188;2024-01-15T15:41:11;0.60;1.00
38239;DHT22;24035;48.900;9.188;2024-01-15T15:43:36;0.60;1.00
38239;DHT22;24035;48.900;9.188;2024-01-15T15:46:02;0.60;1.00
38239;DHT22;24035;48.900;9.188;2024-01-15T15:48:29;0.60;1.00
38239;DHT22;24035;48.900;9.188;2024-01-15T15:50:57;0.60;1.00
38239;DHT22;24035;48.900;9.188;2024-01-15T15:53:25;0.50;99.90
38239;DHT22;24035;48.900;9.188;2024-01-15T15:55:51;0.50;99.90
38239;DHT22;24035;48.900;9.188;2024-01-15T15:58:17;0.50;1.00
38239;DHT22;24035;48.900;9.188;2024-01-15T16:00:43;0.50;1.00
38239;DHT22;24035;48.900;9.188;2024-01-15T16:03:09;0.50;1.00